Time;durP1;ratioP1;P1;durP2;ratioP2;P2;SDS_P1;SDS_P2;PMS_P1;PMS_P2;Temp;Humidity;BMP_temperature;BMP_pressure;BME280_temperature;BME280_humidity;BME280_pressure;Samples;Min_cycle;Max_cycle;Signal;HPM_P1;HPM_P2
2022/05/19 03:00:26;;;;;;;18.67;17.50;;;12.80;99.90;;;;;;5924943;23;20176;-78
2022/05/19 03:02:54;;;;;;;18.70;17.70;;;12.90;99.90;;;;;;5004145;28;20714;-78
2022/05/19 03:05:23;;;;;;;19.83;18.53;;;12.80;99.90;;;;;;4996789;28;20184;-78
2022/05/19 03:07:49;;;;;;;15.60;14.60;;;12.90;99.90;;;;;;4994950;28;20189;-78
2022/05/19 03:10:16;;;;;;;21.40;20.13;;;12.80;99.90;;;;;;4996252;28;20180;-78
2022/05/19 03:12:42;;;;;;;15.57;14.57;;;12.70;99.90;;;;;;4976455;28;20181;-79
2022/05/19 03:15:09;;;;;;;15.23;14.43;;;12.70;99.90;;;;;;4977537;28;20231;-78
2022/05/19 03:20:10;;;;;;;16.10;15.23;;;12.80;99.90;;;;;;4949460;29;20705;-76
2022/05/19 03:22:36;;;;;;;14.53;13.63;;;12.80;99.90;;;;;;4947898;28;20186;-76
2022/05/19 03:25:04;;;;;;;19.43;18.37;;;12.70;99.90;;;;;;4954368;28;20650;-76
2022/05/19 03:27:29;;;;;;;13.90;13.03;;;12.70;99.90;;;;;;4937139;29;20546;-76
2022/05/19 03:29:55;;;;;;;17.50;16.40;;;12.60;99.90;;;;;;4954433;29;20210;-74
2022/05/19 03:32:21;;;;;;;17.47;16.50;;;12.60;99.90;;;;;;4954398;29;20185;-75
2022/05/19 03:34:47;;;;;;;13.87;12.83;;;12.70;99.90;;;;;;4954542;29;20660;-72
2022/05/19 03:37:13;;;;;;;13.33;12.43;;;12.80;99.90;;;;;;4952926;28;20193;-72
2022/05/19 03:39:39;;;;;;;13.80;13.00;;;12.80;99.90;;;;;;4954041;29;20205;-72
2022/05/19 03:42:06;;;;;;;8.33;7.77;;;12.80;99.90;;;;;;4954068;28;20232;-72
2022/05/19 03:44:33;;;;;;;14.70;13.80;;;12.80;99.90;;;;;;4952908;29;20241;-72
2022/05/19 03:46:59;;;;;;;11.27;10.57;;;12.70;99.90;;;;;;4954291;28;20589;-74
2022/05/19 03:49:25;;;;;;;9.50;8.93;;;12.80;99.90;;;;;;4953802;29;20206;-73
2022/05/19 03:51:51;;;;;;;16.90;15.90;;;12.80;99.90;;;;;;4948804;29;20181;-72
2022/05/19 03:54:17;;;;;;;21.07;19.80;;;12.80;99.90;;;;;;4934002;29;20293;-72
2022/05/19 03:56:42;;;;;;;16.83;15.83;;;12.70;99.90;;;;;;4934290;29;20221;-73
2022/05/19 03:59:09;;;;;;;12.80;11.70;;;12.60;99.90;;;;;;4935037;29;20289;-72
2022/05/19 04:01:35;;;;;;;14.00;12.77;;;12.60;99.90;;;;;;4934066;29;20260;-72
2022/05/19 04:04:01;;;;;;;10.93;10.33;;;12.70;99.90;;;;;;4934692;29;20186;-73
2022/05/19 04:06:27;;;;;;;10.33;9.63;;;12.70;99.90;;;;;;4934531;29;20209;-72
2022/05/19 04:08:53;;;;;;;14.20;12.87;;;12.80;99.90;;;;;;4932910;29;20728;-72
2022/05/19 04:11:18;;;;;;;43.73;40.63;;;12.90;99.90;;;;;;4933037;29;20182;-72
2022/05/19 04:13:44;;;;;;;58.50;54.63;;;12.90;99.90;;;;;;4934472;29;20575;-73
2022/05/19 04:16:10;;;;;;;49.80;46.33;;;13.00;99.90;;;;;;4934494;29;20249;-74
2022/05/19 04:18:36;;;;;;;38.97;36.40;;;13.00;99.90;;;;;;4933445;29;20225;-76
2022/05/19 04:21:02;;;;;;;50.10;47.33;;;13.00;99.90;;;;;;4934260;29;20221;-76
2022/05/19 04:23:28;;;;;;;46.27;43.43;;;13.00;99.90;;;;;;4934585;29;20535;-75
2022/05/19 04:25:54;;;;;;;45.27;42.67;;;13.10;99.90;;;;;;4934183;29;20182;-75
2022/05/19 04:28:20;;;;;;;30.37;28.60;;;13.20;99.90;;;;;;4933817;29;20212;-74
2022/05/19 04:30:46;;;;;;;43.83;41.37;;;13.30;99.90;;;;;;4934404;29;20262;-74
2022/05/19 04:33:12;;;;;;;49.93;47.03;;;13.50;99.90;;;;;;4934590;29;20558;-74
2022/05/19 04:35:39;;;;;;;31.03;29.37;;;13.60;99.90;;;;;;4934608;29;20178;-73
2022/05/19 04:38:12;;;;;;;35.43;33.33;;;13.70;99.90;;;;;;4934210;29;20277;-74
2022/05/19 04:40:44;;;;;;;46.73;43.77;;;13.80;99.90;;;;;;4934407;29;20218;-74
2022/05/19 04:43:10;;;;;;;38.27;35.87;;;13.90;99.90;;;;;;4934056;29;20187;-74
2022/05/19 04:45:36;;;;;;;19.03;17.70;;;14.00;99.90;;;;;;4934437;29;20628;-73
2022/05/19 04:48:02;;;;;;;11.53;10.63;;;14.10;99.90;;;;;;4933765;29;20245;-74
2022/05/19 04:50:29;;;;;;;10.23;9.53;;;14.20;99.90;;;;;;4932691;29;20182;-74
2022/05/19 04:52:58;;;;;;;12.17;11.23;;;14.30;99.90;;;;;;4934070;29;20674;-75
2022/05/19 04:55:26;;;;;;;18.77;17.73;;;14.40;99.90;;;;;;4932799;29;20213;-74
2022/05/19 04:57:52;;;;;;;21.43;20.03;;;14.50;99.90;;;;;;4933358;29;20190;-74
2022/05/19 05:00:19;;;;;;;14.13;13.33;;;14.60;99.90;;;;;;4940502;29;20214;-73
2022/05/19 05:02:45;;;;;;;9.30;8.60;;;14.80;99.90;;;;;;4935616;29;20266;-74
2022/05/19 05:05:11;;;;;;;42.40;40.23;;;15.10;99.90;;;;;;4934226;29;20623;-76
2022/05/19 05:07:37;;;;;;;12.17;11.47;;;15.50;99.90;;;;;;4932377;29;20178;-76
2022/05/19 05:10:04;;;;;;;6.97;6.37;;;16.00;99.90;;;;;;4933901;29;20226;-76
2022/05/19 05:12:29;;;;;;;6.83;6.23;;;16.60;99.90;;;;;;4932409;29;20190;-76
2022/05/19 05:14:55;;;;;;;8.37;7.87;;;17.10;99.90;;;;;;4937242;29;20689;-76
2022/05/19 05:17:21;;;;;;;8.57;7.87;;;17.50;99.90;;;;;;4932459;29;20651;-76
2022/05/19 05:19:48;;;;;;;40.27;38.27;;;17.80;99.90;;;;;;4932670;29;20229;-76
2022/05/19 05:22:14;;;;;;;28.03;26.23;;;18.20;99.90;;;;;;4933442;29;20182;-76
2022/05/19 05:24:40;;;;;;;15.57;14.33;;;18.60;99.90;;;;;;4933793;29;20686;-77
2022/05/19 05:27:06;;;;;;;9.60;8.73;;;18.70;99.90;;;;;;4932025;29;20183;-76
2022/05/19 05:29:33;;;;;;;7.10;6.57;;;18.60;99.90;;;;;;4933465;29;20229;-76
2022/05/19 05:31:59;;;;;;;15.67;14.90;;;18.90;99.90;;;;;;4936438;29;20569;-75
2022/05/19 05:34:25;;;;;;;11.85;11.25;;;19.30;99.90;;;;;;4937914;29;20269;-75
2022/05/19 05:36:51;;;;;;;17.70;16.80;;;19.80;99.90;;;;;;4935937;29;20210;-75
2022/05/19 05:39:16;;;;;;;20.42;19.40;;;20.30;99.90;;;;;;4937271;29;20268;-76
2022/05/19 05:41:42;;;;;;;34.35;32.63;;;20.60;99.90;;;;;;4937331;29;20321;-76
2022/05/19 05:44:08;;;;;;;45.60;43.25;;;21.00;99.90;;;;;;4936347;29;20193;-75
2022/05/19 05:46:34;;;;;;;25.15;23.60;;;21.50;99.90;;;;;;4937483;29;20174;-76
2022/05/19 05:49:00;;;;;;;9.73;9.02;;;22.10;99.90;;;;;;4937052;29;20293;-76
2022/05/19 05:51:26;;;;;;;9.38;8.70;;;22.40;99.90;;;;;;4937738;29;20616;-75
2022/05/19 05:53:52;;;;;;;8.00;6.53;;;22.50;99.90;;;;;;4935924;29;20191;-75
2022/05/19 05:56:19;;;;;;;7.60;6.93;;;22.70;99.90;;;;;;4936052;29;20225;-75
2022/05/19 05:58:46;;;;;;;6.22;5.63;;;22.70;99.90;;;;;;4936856;29;20202;-75
2022/05/19 06:01:14;;;;;;;5.70;5.30;;;22.10;99.90;;;;;;4937098;29;20252;-76
2022/05/19 06:03:40;;;;;;;5.68;5.30;;;22.00;99.90;;;;;;4937025;29;20278;-76
2022/05/19 06:06:07;;;;;;;7.80;7.10;;;21.90;99.90;;;;;;4937044;29;20214;-76
2022/05/19 06:08:33;;;;;;;8.48;7.75;;;21.50;99.90;;;;;;4936532;29;20210;-76
2022/05/19 06:11:00;;;;;;;13.30;12.07;;;21.30;99.90;;;;;;4936682;29;20286;-77
2022/05/19 06:13:26;;;;;;;13.35;12.45;;;21.30;99.90;;;;;;4935748;29;20661;-76
2022/05/19 06:15:52;;;;;;;15.27;14.43;;;21.40;99.90;;;;;;4936890;29;20194;-76
2022/05/19 06:18:18;;;;;;;10.57;9.75;;;21.50;99.90;;;;;;4936582;29;20725;-76
2022/05/19 06:20:44;;;;;;;13.20;12.40;;;21.90;99.90;;;;;;4937164;29;20207;-76
2022/05/19 06:23:10;;;;;;;10.40;6.13;;;22.60;99.90;;;;;;4946780;29;20617;-77
2022/05/19 06:25:37;;;;;;;7.15;5.80;;;23.40;98.80;;;;;;4945776;29;20221;-76
2022/05/19 06:28:03;;;;;;;6.93;6.43;;;23.80;96.20;;;;;;4936600;29;20209;-76
2022/05/19 06:30:30;;;;;;;7.72;7.32;;;24.20;94.50;;;;;;4937029;29;20663;-78
2022/05/19 06:32:57;;;;;;;7.53;5.68;;;23.60;94.10;;;;;;4936750;29;20191;-75
2022/05/19 06:35:27;;;;;;;7.97;6.10;;;23.30;94.50;;;;;;4936620;29;20296;-75
2022/05/19 06:37:54;;;;;;;6.70;6.18;;;23.40;94.40;;;;;;4938722;29;20666;-74
2022/05/19 06:40:21;;;;;;;7.00;6.13;;;23.50;94.40;;;;;;4938609;29;20218;-76
2022/05/19 06:42:48;;;;;;;7.38;6.78;;;23.80;93.80;;;;;;4934567;29;20183;-75
2022/05/19 06:45:17;;;;;;;6.93;6.53;;;24.00;92.80;;;;;;4936455;29;20233;-75
2022/05/19 06:47:43;;;;;;;5.45;4.90;;;24.70;92.20;;;;;;4935889;29;20277;-76
2022/05/19 06:50:10;;;;;;;5.32;4.80;;;25.00;90.40;;;;;;4936365;29;20245;-76
2022/05/19 06:52:53;;;;;;;5.18;4.68;;;24.90;90.00;;;;;;4934888;29;20209;-76
2022/05/19 06:55:21;;;;;;;5.30;4.82;;;24.70;90.00;;;;;;4936179;29;20274;-76
2022/05/19 06:57:47;;;;;;;5.65;5.15;;;24.50;89.80;;;;;;4935717;29;20193;-76
2022/05/19 07:00:23;;;;;;;5.20;4.88;;;24.20;91.70;;;;;;4934821;29;20217;-77
2022/05/19 07:02:53;;;;;;;7.20;5.00;;;24.60;90.10;;;;;;4936017;29;20186;-76
2022/05/19 07:05:22;;;;;;;4.95;4.63;;;24.50;89.10;;;;;;4934770;29;20238;-77
2022/05/19 07:07:48;;;;;;;6.97;4.97;;;24.70;89.30;;;;;;4935331;29;20186;-76
2022/05/19 07:10:16;;;;;;;5.45;5.05;;;24.60;88.70;;;;;;4935980;29;20187;-75
2022/05/19 07:12:43;;;;;;;6.25;5.57;;;24.50;88.60;;;;;;4935673;29;20669;-75
2022/05/19 07:15:11;;;;;;;6.30;5.72;;;24.70;88.90;;;;;;4935869;29;20190;-75
2022/05/19 07:17:37;;;;;;;7.13;5.93;;;24.70;88.40;;;;;;4935208;29;20186;-75
2022/05/19 07:22:49;;;;;;;8.15;7.65;;;25.40;85.70;;;;;;4935688;29;20269;-75
2022/05/19 07:25:15;;;;;;;8.93;8.30;;;25.80;83.90;;;;;;4936282;29;20178;-75
2022/05/19 07:27:42;;;;;;;7.38;6.90;;;25.90;84.60;;;;;;4935554;29;20198;-76
2022/05/19 07:30:10;;;;;;;5.53;5.00;;;25.90;81.00;;;;;;4937545;28;20178;-76
2022/05/19 07:32:36;;;;;;;5.28;4.95;;;26.30;80.00;;;;;;4954824;29;20194;-76
2022/05/19 07:35:03;;;;;;;6.30;4.53;;;26.70;81.50;;;;;;4938744;29;20190;-76
2022/05/19 07:37:29;;;;;;;5.13;4.72;;;26.80;79.20;;;;;;4935200;29;20610;-76
2022/05/19 07:39:55;;;;;;;5.63;5.22;;;26.80;78.80;;;;;;4937363;29;20582;-75
2022/05/19 07:42:21;;;;;;;5.85;5.25;;;27.20;76.90;;;;;;4945821;29;20187;-75
2022/05/19 07:44:47;;;;;;;5.03;4.63;;;26.90;76.10;;;;;;4944296;29;20178;-78
2022/05/19 07:47:14;;;;;;;7.28;4.95;;;26.50;78.20;;;;;;4942121;29;20192;-77
2022/05/19 07:49:41;;;;;;;6.32;5.85;;;26.90;77.30;;;;;;4935952;29;20590;-77
2022/05/19 07:52:07;;;;;;;6.20;5.80;;;27.20;75.50;;;;;;4935352;29;20192;-76
2022/05/19 07:54:33;;;;;;;7.88;5.75;;;27.40;75.50;;;;;;4934607;29;20546;-77
2022/05/19 07:57:00;;;;;;;6.90;6.47;;;27.60;76.60;;;;;;4933707;29;20186;-76
2022/05/19 07:59:27;;;;;;;6.72;6.13;;;27.50;73.30;;;;;;4934131;29;20207;-76
2022/05/19 08:01:54;;;;;;;6.70;6.30;;;26.70;75.60;;;;;;4935214;29;20214;-76
2022/05/19 08:04:21;;;;;;;8.85;6.85;;;26.40;76.10;;;;;;4934763;29;20182;-77
2022/05/19 08:06:47;;;;;;;6.03;5.10;;;26.50;76.00;;;;;;4934272;29;20674;-77
2022/05/19 08:11:58;;;;;;;6.28;5.55;;;27.40;75.60;;;;;;4934651;29;20637;-75
2022/05/19 08:17:10;;;;;;;6.55;6.15;;;28.10;72.70;;;;;;4934931;29;20452;-75
2022/05/19 08:19:37;;;;;;;6.50;5.93;;;28.20;72.30;;;;;;4934449;29;20222;-75
2022/05/19 08:22:04;;;;;;;6.57;6.07;;;27.70;72.80;;;;;;4934563;29;20237;-76
2022/05/19 08:24:30;;;;;;;7.47;6.88;;;27.80;72.20;;;;;;4934559;29;20237;-76
2022/05/19 08:26:57;;;;;;;6.45;6.00;;;28.30;72.10;;;;;;4934345;29;20254;-75
2022/05/19 08:29:23;;;;;;;7.80;7.25;;;28.20;71.20;;;;;;4934338;29;20577;-75
2022/05/19 08:31:49;;;;;;;7.22;6.75;;;27.80;71.90;;;;;;4933035;29;20187;-76
2022/05/19 08:34:15;;;;;;;8.00;6.65;;;28.20;74.30;;;;;;4934627;29;20285;-76
2022/05/19 08:36:41;;;;;;;5.70;5.32;;;29.00;72.30;;;;;;4934426;29;20179;-76
2022/05/19 08:39:07;;;;;;;4.15;3.85;;;29.70;71.40;;;;;;4934272;29;20212;-76
2022/05/19 08:41:48;;;;;;;4.97;4.57;;;30.10;67.00;;;;;;4957323;29;20218;-76
2022/05/19 08:44:32;;;;;;;6.72;6.30;;;29.80;67.10;;;;;;4933168;29;20186;-76
2022/05/19 08:47:01;;;;;;;5.70;5.30;;;29.50;68.80;;;;;;4934000;29;20540;-75
2022/05/19 08:49:38;;;;;;;4.55;4.15;;;29.70;66.70;;;;;;4933994;29;20261;-76
2022/05/19 08:52:14;;;;;;;6.82;4.60;;;30.10;65.20;;;;;;4932890;29;20269;-76
2022/05/19 08:54:44;;;;;;;4.95;4.63;;;30.50;66.90;;;;;;4934243;29;20205;-76
2022/05/19 08:57:21;;;;;;;5.43;4.63;;;30.80;63.70;;;;;;4934104;29;20193;-76
2022/05/19 09:00:27;;;;;;;9.38;8.70;;;31.40;62.80;;;;;;4933090;29;20236;-76
2022/05/19 09:02:56;;;;;;;13.63;12.55;;;31.40;61.70;;;;;;4932575;29;20280;-75
2022/05/19 09:05:41;;;;;;;16.48;15.13;;;31.60;61.10;;;;;;4932429;29;20743;-76
2022/05/19 09:08:27;;;;;;;17.67;16.70;;;32.20;59.90;;;;;;4933415;29;20198;-76
2022/05/19 09:11:10;;;;;;;13.15;12.07;;;32.60;58.70;;;;;;4933766;29;20213;-75
2022/05/19 09:13:52;;;;;;;17.33;16.35;;;32.30;58.70;;;;;;4934019;29;20630;-76
2022/05/19 09:16:29;;;;;;;10.68;10.05;;;32.40;60.40;;;;;;4932598;29;20191;-76
2022/05/19 09:19:02;;;;;;;17.95;16.85;;;32.80;58.90;;;;;;4961994;23;20244;-77
2022/05/19 09:21:28;;;;;;;16.77;15.65;;;32.70;59.40;;;;;;4953128;29;20308;-78
2022/05/19 09:23:53;;;;;;;20.73;19.52;;;32.50;59.00;;;;;;4955001;29;20276;-79
2022/05/19 09:26:45;;;;;;;21.50;20.23;;;32.50;60.00;;;;;;4956075;29;20177;-77
2022/05/19 09:29:14;;;;;;;6.03;5.63;;;32.80;58.30;;;;;;4957844;28;20201;-76
2022/05/19 09:31:53;;;;;;;4.95;4.30;;;33.10;57.80;;;;;;4957814;29;20188;-75
2022/05/19 09:34:24;;;;;;;5.70;5.15;;;33.00;55.50;;;;;;4957120;29;20190;-76
2022/05/19 09:37:05;;;;;;;5.43;4.95;;;32.90;55.40;;;;;;4959661;28;20552;-78
2022/05/19 09:39:35;;;;;;;5.47;5.18;;;33.30;55.90;;;;;;4956502;28;20205;-78
2022/05/19 09:42:08;;;;;;;4.82;4.53;;;33.00;55.10;;;;;;4955406;28;20216;-78
2022/05/19 09:44:40;;;;;;;4.88;4.43;;;33.30;56.50;;;;;;4954487;29;20567;-79
2022/05/19 09:47:28;;;;;;;5.47;5.05;;;33.20;57.20;;;;;;4954967;29;20569;-79
2022/05/19 09:50:07;;;;;;;5.32;4.93;;;33.60;55.50;;;;;;4955236;28;20233;-79
2022/05/19 09:52:33;;;;;;;5.80;5.18;;;33.60;57.00;;;;;;4955202;28;20181;-79
2022/05/19 09:55:06;;;;;;;6.55;5.97;;;33.40;57.00;;;;;;4953644;28;20182;-77
2022/05/19 09:57:51;;;;;;;7.20;6.63;;;33.30;56.10;;;;;;4954470;28;20182;-79
2022/05/19 10:00:25;;;;;;;6.82;6.20;;;33.10;55.50;;;;;;4957696;28;20237;-77
2022/05/19 10:02:58;;;;;;;5.95;5.65;;;33.00;56.30;;;;;;4958100;28;20185;-77
2022/05/19 10:05:35;;;;;;;6.50;6.10;;;33.30;56.80;;;;;;4955369;28;20185;-78
2022/05/19 10:08:12;;;;;;;7.13;6.47;;;33.60;55.20;;;;;;4972779;28;20185;-79
2022/05/19 10:11:04;;;;;;;6.30;5.90;;;33.90;55.70;;;;;;4973716;28;20192;-78
2022/05/19 10:13:54;;;;;;;13.90;13.15;;;34.10;55.00;;;;;;4956435;28;20190;-76
2022/05/19 10:16:42;;;;;;;15.88;14.85;;;33.90;53.90;;;;;;4955998;28;20565;-79
2022/05/19 10:19:30;;;;;;;24.40;23.13;;;33.90;56.00;;;;;;4959528;28;20217;-78
2022/05/19 10:22:17;;;;;;;39.75;37.72;;;34.00;54.20;;;;;;4957094;29;20218;-79
2022/05/19 10:24:48;;;;;;;27.35;25.95;;;33.70;53.00;;;;;;4958110;28;20192;-79
2022/05/19 10:33:28;;;;;;;39.65;37.42;;;34.80;52.20;;;;;;4957730;29;20198;-79
2022/05/19 10:36:16;;;;;;;41.55;39.45;;;34.80;53.20;;;;;;4957271;29;20580;-79
2022/05/19 10:38:44;;;;;;;31.27;29.67;;;34.90;53.30;;;;;;4957226;28;20224;-77
2022/05/19 10:41:50;;;;;;;6.93;6.32;;;35.40;52.30;;;;;;4957683;29;20209;-78
2022/05/19 10:44:47;;;;;;;45.20;42.95;;;35.40;51.50;;;;;;4945899;29;20193;-77
2022/05/19 10:47:40;;;;;;;39.22;37.28;;;35.20;53.30;;;;;;4957713;29;20658;-78
2022/05/19 10:50:24;;;;;;;40.67;37.97;;;35.50;53.40;;;;;;4956492;28;20297;-78
2022/05/19 10:53:17;;;;;;;11.75;11.05;;;35.60;53.20;;;;;;4959304;29;20197;-76
2022/05/19 10:56:20;;;;;;;5.72;5.32;;;35.60;50.50;;;;;;4964781;29;20217;-78
2022/05/19 10:58:58;;;;;;;7.22;6.63;;;36.10;50.50;;;;;;4972177;28;20253;-79
2022/05/19 11:01:35;;;;;;;5.88;5.38;;;36.30;52.50;;;;;;4957508;28;20226;-80
2022/05/19 11:04:05;;;;;;;6.22;5.72;;;36.00;50.00;;;;;;4960386;28;20184;-76
2022/05/19 11:06:52;;;;;;;6.00;5.60;;;35.70;50.30;;;;;;4960419;29;20638;-78
2022/05/19 11:09:24;;;;;;;6.07;5.53;;;35.10;50.40;;;;;;4957881;28;20205;-79
2022/05/19 11:12:00;;;;;;;6.20;5.80;;;35.60;51.50;;;;;;4959052;29;20201;-79
2022/05/19 11:14:32;;;;;;;7.55;6.95;;;36.00;50.50;;;;;;4959654;28;20224;-79
2022/05/19 11:17:12;;;;;;;11.48;10.68;;;35.90;51.50;;;;;;4957123;29;20244;-79
2022/05/19 11:19:46;;;;;;;5.95;5.55;;;36.20;50.30;;;;;;4957866;28;20320;-79
2022/05/19 11:22:16;;;;;;;7.03;6.32;;;37.10;50.10;;;;;;4957479;29;20559;-78
2022/05/19 11:27:52;;;;;;;7.07;6.68;;;36.60;48.50;;;;;;4956916;28;20672;-77
2022/05/19 11:30:28;;;;;;;11.68;11.00;;;36.40;50.10;;;;;;4961625;28;20202;-77
2022/05/19 11:33:01;;;;;;;7.80;7.07;;;35.80;48.90;;;;;;4962177;28;20185;-77
2022/05/19 11:35:46;;;;;;;8.20;7.55;;;36.20;51.10;;;;;;4956859;28;20564;-79
2022/05/19 11:38:46;;;;;;;8.50;8.00;;;35.90;50.20;;;;;;4957507;28;20280;-79
2022/05/19 11:41:19;;;;;;;6.10;5.68;;;36.20;50.70;;;;;;4956154;29;20214;-79
2022/05/19 11:43:48;;;;;;;6.30;5.90;;;36.80;49.90;;;;;;4957936;28;20244;-79
2022/05/19 11:46:25;;;;;;;17.10;16.10;;;37.20;49.50;;;;;;4975498;28;20185;-76
2022/05/19 11:57:35;;;;;;;23.55;22.27;;;37.90;47.70;;;;;;4959296;29;20197;-78
2022/05/19 12:00:04;;;;;;;12.50;11.45;;;38.20;46.60;;;;;;4957796;28;20760;-79
2022/05/19 12:02:48;;;;;;;9.20;6.88;;;38.90;45.40;;;;;;4956626;28;20324;-79
2022/05/19 12:05:31;;;;;;;4.18;3.80;;;39.70;44.80;;;;;;4955827;29;20186;-79
2022/05/19 12:08:25;;;;;;;3.53;3.33;;;40.10;42.90;;;;;;4955320;28;20676;-79
2022/05/19 12:11:14;;;;;;;3.47;3.15;;;40.50;41.90;;;;;;4974495;28;20318;-77
2022/05/19 12:13:47;;;;;;;3.90;3.60;;;40.90;41.50;;;;;;4965201;29;20280;-78
2022/05/19 12:16:17;;;;;;;3.83;3.30;;;40.60;41.80;;;;;;4960972;28;20205;-78
2022/05/19 12:19:00;;;;;;;4.55;3.88;;;40.40;43.00;;;;;;4955386;28;20273;-76
2022/05/19 12:21:51;;;;;;;3.95;3.58;;;40.70;41.30;;;;;;4954813;29;20273;-77
2022/05/19 12:24:21;;;;;;;4.60;3.67;;;40.70;42.60;;;;;;4956867;28;20185;-77
2022/05/19 12:26:57;;;;;;;4.93;3.67;;;41.40;39.70;;;;;;4956146;28;20623;-78
2022/05/19 12:29:47;;;;;;;4.30;3.92;;;41.50;39.90;;;;;;4955223;28;20359;-78
2022/05/19 12:32:36;;;;;;;3.88;3.58;;;41.40;39.90;;;;;;4956372;28;20182;-78
2022/05/19 12:35:12;;;;;;;5.65;4.93;;;41.40;40.00;;;;;;4948837;29;20201;-79
2022/05/19 12:37:49;;;;;;;4.43;3.85;;;41.20;40.30;;;;;;4970956;28;20232;-78
2022/05/19 12:40:37;;;;;;;6.03;3.65;;;41.00;40.70;;;;;;4955660;28;20291;-78
2022/05/19 12:43:17;;;;;;;4.25;3.88;;;40.50;41.10;;;;;;4955182;29;20582;-78
2022/05/19 12:45:49;;;;;;;5.78;3.90;;;40.70;40.10;;;;;;4959026;29;20554;-77
2022/05/19 12:48:15;;;;;;;4.97;4.47;;;40.80;41.00;;;;;;4972065;28;20174;-78
2022/05/19 12:50:43;;;;;;;3.67;3.47;;;41.20;39.30;;;;;;4954323;28;20180;-78
2022/05/19 12:53:23;;;;;;;4.88;4.03;;;40.80;40.10;;;;;;4953777;28;20209;-78
2022/05/19 12:55:54;;;;;;;4.43;4.13;;;41.40;39.10;;;;;;4954594;29;20189;-77
2022/05/19 12:58:45;;;;;;;7.18;3.80;;;41.00;39.00;;;;;;4954666;28;20190;-78
2022/05/19 13:01:26;;;;;;;3.90;3.70;;;39.20;41.50;;;;;;4954792;28;20708;-77
2022/05/19 13:04:18;;;;;;;6.45;4.63;;;39.60;41.90;;;;;;4954981;28;20441;-78
2022/05/19 13:07:14;;;;;;;9.55;4.20;;;40.00;41.10;;;;;;4954804;28;20193;-78
2022/05/19 13:09:41;;;;;;;4.18;3.75;;;40.30;40.70;;;;;;4956188;28;20217;-79
2022/05/19 13:12:17;;;;;;;4.28;3.88;;;39.60;40.90;;;;;;4972286;28;20606;-78
2022/05/19 13:14:56;;;;;;;4.35;4.03;;;39.60;41.50;;;;;;4957690;28;20632;-77
2022/05/19 13:17:43;;;;;;;6.60;4.13;;;40.00;41.10;;;;;;4957693;28;20189;-78
2022/05/19 13:20:17;;;;;;;3.78;3.47;;;40.40;41.80;;;;;;4957139;28;20251;-79
2022/05/19 13:22:50;;;;;;;4.18;3.88;;;40.70;39.40;;;;;;4955492;28;20182;-76
2022/05/19 13:25:17;;;;;;;4.93;3.60;;;40.90;39.70;;;;;;4956627;28;20217;-77
2022/05/19 13:30:34;;;;;;;4.13;3.85;;;40.40;41.10;;;;;;4957473;28;20209;-78
2022/05/19 13:33:22;;;;;;;4.00;3.60;;;41.50;39.20;;;;;;4955080;28;20185;-78
2022/05/19 13:35:58;;;;;;;4.03;3.72;;;41.90;41.20;;;;;;4954904;28;20193;-78
2022/05/19 13:38:24;;;;;;;4.72;4.30;;;41.80;38.50;;;;;;4953821;28;20209;-78
2022/05/19 13:40:51;;;;;;;4.22;3.92;;;40.60;39.10;;;;;;4954250;28;20212;-77
2022/05/19 13:43:25;;;;;;;4.78;4.20;;;39.00;41.20;;;;;;4952662;29;20672;-77
2022/05/19 13:45:57;;;;;;;4.32;3.92;;;38.60;42.00;;;;;;4954174;29;20297;-78
2022/05/19 13:48:45;;;;;;;8.20;4.25;;;39.10;41.60;;;;;;4955305;28;20197;-76
2022/05/19 13:51:37;;;;;;;4.22;3.67;;;39.00;41.20;;;;;;4957310;28;20284;-80
2022/05/19 13:54:06;;;;;;;6.20;3.92;;;39.20;40.60;;;;;;4961380;28;20189;-78
2022/05/19 13:56:38;;;;;;;6.60;4.25;;;38.20;41.60;;;;;;4960643;28;20312;-79
2022/05/19 13:59:06;;;;;;;4.78;4.38;;;37.80;42.30;;;;;;4958316;28;20212;-79
2022/05/19 14:01:40;;;;;;;5.25;3.95;;;37.90;42.40;;;;;;4958289;28;20213;-77
2022/05/19 14:04:09;;;;;;;4.57;3.90;;;38.40;42.40;;;;;;4957683;28;20236;-77
2022/05/19 14:06:37;;;;;;;4.18;3.85;;;39.10;42.60;;;;;;4958673;28;20182;-79
2022/05/19 14:09:06;;;;;;;5.40;4.25;;;39.20;42.00;;;;;;4957538;28;20209;-77
2022/05/19 14:11:32;;;;;;;6.85;4.00;;;39.20;41.50;;;;;;4957934;28;20210;-77
2022/05/19 14:14:00;;;;;;;5.93;3.70;;;40.00;40.30;;;;;;4958073;29;20189;-76
2022/05/19 14:16:31;;;;;;;6.30;3.28;;;40.60;40.50;;;;;;4958515;28;20292;-79
2022/05/19 14:19:10;;;;;;;5.93;5.00;;;41.40;39.50;;;;;;4958443;28;20717;-79
2022/05/19 14:21:38;;;;;;;6.22;4.60;;;41.60;39.80;;;;;;4958887;28;20701;-78
2022/05/19 14:24:10;;;;;;;5.20;4.07;;;41.50;39.40;;;;;;4959263;28;20213;-78
2022/05/19 14:26:43;;;;;;;4.20;3.80;;;41.20;40.00;;;;;;4958932;28;20189;-77
2022/05/19 14:29:21;;;;;;;4.50;4.13;;;41.20;39.60;;;;;;4956872;28;20202;-78
2022/05/19 14:31:48;;;;;;;6.68;4.47;;;41.10;39.80;;;;;;4958682;29;20735;-77
2022/05/19 14:34:20;;;;;;;4.25;3.85;;;40.40;40.50;;;;;;4956837;28;20216;-78
2022/05/19 14:37:16;;;;;;;5.63;3.60;;;39.40;41.70;;;;;;4957935;29;20658;-78
2022/05/19 14:43:10;;;;;;;6.43;3.95;;;39.60;40.40;;;;;;4961848;29;20192;-77
2022/05/19 14:45:41;;;;;;;5.22;4.82;;;40.70;38.10;;;;;;4958948;29;20185;-78
2022/05/19 14:48:12;;;;;;;10.25;9.35;;;41.00;36.00;;;;;;4960614;28;20236;-78
2022/05/19 14:50:42;;;;;;;8.77;8.10;;;41.10;35.10;;;;;;4963366;28;20189;-76
2022/05/19 14:53:16;;;;;;;11.27;10.43;;;41.10;36.40;;;;;;4961911;28;20197;-77
2022/05/19 14:55:45;;;;;;;15.65;14.40;;;41.20;33.70;;;;;;4957485;28;20192;-78
2022/05/19 14:58:15;;;;;;;11.98;10.95;;;40.40;33.40;;;;;;4957330;28;20209;-76
2022/05/19 15:00:41;;;;;;;7.10;6.43;;;39.70;35.20;;;;;;4957028;29;20210;-76
2022/05/19 15:03:06;;;;;;;13.20;12.15;;;39.10;36.00;;;;;;4959935;28;20313;-77
2022/05/19 15:05:34;;;;;;;5.80;4.97;;;38.80;35.50;;;;;;4960226;29;20201;-78
2022/05/19 15:08:06;;;;;;;7.38;4.30;;;38.90;37.10;;;;;;4959529;28;20595;-78
2022/05/19 15:10:33;;;;;;;5.93;5.22;;;38.70;37.90;;;;;;4978261;28;20181;-78
2022/05/19 15:13:01;;;;;;;4.93;4.55;;;38.50;36.40;;;;;;4959976;28;20209;-79
2022/05/19 15:15:29;;;;;;;5.82;5.40;;;38.70;37.00;;;;;;4956399;29;20186;-79
2022/05/19 15:17:56;;;;;;;5.97;3.95;;;38.90;36.30;;;;;;4955548;29;20580;-77
2022/05/19 15:20:23;;;;;;;6.88;4.43;;;39.40;37.00;;;;;;4965545;28;20216;-81
2022/05/19 15:22:50;;;;;;;5.07;3.35;;;38.60;38.00;;;;;;4966419;28;20184;-79
2022/05/19 15:25:17;;;;;;;5.30;3.53;;;37.80;38.20;;;;;;4965992;28;20192;-81
2022/05/19 15:27:43;;;;;;;6.45;3.83;;;37.60;38.70;;;;;;4960531;28;20634;-78
2022/05/19 15:30:15;;;;;;;6.75;4.95;;;38.10;38.90;;;;;;4964740;28;20212;-79
2022/05/19 15:32:41;;;;;;;9.70;6.60;;;38.60;35.70;;;;;;4961275;29;20182;-79
2022/05/19 15:35:07;;;;;;;7.53;6.90;;;38.70;35.80;;;;;;4961712;29;20575;-78
2022/05/19 15:37:33;;;;;;;6.43;4.40;;;38.80;35.90;;;;;;4960071;29;20194;-80
2022/05/19 15:39:59;;;;;;;7.50;6.60;;;39.30;36.70;;;;;;4963407;28;20201;-80
2022/05/19 15:42:25;;;;;;;7.57;5.63;;;39.00;36.20;;;;;;4965601;29;20182;-80
2022/05/19 15:44:51;;;;;;;7.57;3.33;;;38.10;36.30;;;;;;4964294;29;20207;-79
2022/05/19 15:47:21;;;;;;;6.82;4.50;;;37.30;37.80;;;;;;4963697;29;20215;-80
2022/05/19 15:49:47;;;;;;;5.38;3.90;;;35.70;40.20;;;;;;4980896;28;20202;-81
2022/05/19 15:52:17;;;;;;;8.88;5.68;;;34.50;42.10;;;;;;4965371;29;20201;-81
2022/05/19 15:54:43;;;;;;;12.45;6.38;;;34.00;43.50;;;;;;4962720;28;20196;-80
2022/05/19 15:57:09;;;;;;;7.72;7.10;;;34.10;43.80;;;;;;4961069;29;20641;-79
2022/05/19 15:59:35;;;;;;;8.40;7.32;;;34.40;44.30;;;;;;4962754;28;20208;-81
2022/05/19 16:02:24;;;;;;;7.28;5.50;;;34.80;43.80;;;;;;4964459;29;20245;-79
2022/05/19 16:04:52;;;;;;;6.45;5.32;;;35.30;42.70;;;;;;4961417;29;20193;-80
2022/05/19 16:07:18;;;;;;;10.25;5.57;;;35.90;41.80;;;;;;4966210;29;20178;-81
2022/05/19 16:09:44;;;;;;;5.25;4.82;;;36.30;41.10;;;;;;4963716;29;20202;-79
2022/05/19 16:12:10;;;;;;;5.72;5.22;;;36.50;41.10;;;;;;4953779;29;20190;-81
2022/05/19 16:14:36;;;;;;;9.95;4.88;;;36.60;41.60;;;;;;4956151;28;20263;-79
2022/05/19 16:17:04;;;;;;;7.03;4.28;;;36.50;41.30;;;;;;4954196;29;20209;-78
2022/05/19 16:19:31;;;;;;;5.40;4.90;;;36.00;41.30;;;;;;4954769;28;20223;-80
2022/05/19 16:21:57;;;;;;;4.68;4.28;;;35.70;43.20;;;;;;4953454;29;20210;-78
2022/05/19 16:24:23;;;;;;;5.75;4.60;;;36.40;41.90;;;;;;4953936;29;20192;-80
2022/05/19 16:26:49;;;;;;;9.10;4.93;;;36.00;42.30;;;;;;4952762;29;20272;-77
2022/05/19 16:29:15;;;;;;;5.10;4.65;;;36.10;42.80;;;;;;4955368;28;20204;-80
2022/05/19 16:31:41;;;;;;;7.03;5.47;;;35.80;42.50;;;;;;4956596;29;20269;-79
2022/05/19 16:34:07;;;;;;;13.48;9.23;;;35.60;43.60;;;;;;4957257;29;20261;-80
2022/05/19 16:36:36;;;;;;;10.00;9.20;;;34.70;44.70;;;;;;4954510;29;20186;-81